sensor_id;sensor_type;location;lat;lon;timestamp;P1;P4;P2;P0;N10;N4;N25;N1;N05;TS
72443;SPS30;60449;52.016;5.414;2023-09-19T00:00:25;2.22;2.15;2.02;1.77;14.10;14.09;14.05;13.85;11.81;0.63
72443;SPS30;60449;52.016;5.414;2023-09-19T00:01:16;2.43;2.36;2.23;1.96;15.65;15.64;15.60;15.39;13.15;0.62
72443;SPS30;60449;52.016;5.414;2023-09-19T00:02:10;2.72;2.66;2.53;2.25;17.97;17.96;17.92;17.71;15.18;0.61
72443;SPS30;60449;52.016;5.414;2023-09-19T00:03:00;2.51;2.44;2.31;2.03;16.23;16.22;16.18;15.97;13.65;0.61
72443;SPS30;60449;52.016;5.414;2023-09-19T00:04:01;2.47;2.40;2.25;1.96;15.67;15.67;15.62;15.40;13.12;0.61
72443;SPS30;60449;52.016;5.414;2023-09-19T00:04:58;2.42;2.34;2.19;1.90;15.19;15.18;15.14;14.91;12.69;0.61
72443;SPS30;60449;52.016;5.414;2023-09-19T00:05:52;2.64;2.56;2.39;2.07;16.55;16.54;16.49;16.24;13.82;0.61
72443;SPS30;60449;52.016;5.414;2023-09-19T00:06:47;2.29;2.22;2.08;1.81;14.45;14.45;14.41;14.19;12.08;0.60
72443;SPS30;60449;52.016;5.414;2023-09-19T00:07:37;2.05;1.99;1.88;1.65;13.20;13.19;13.16;12.98;11.09;0.62
72443;SPS30;60449;52.016;5.414;2023-09-19T00:08:30;2.38;2.32;2.20;1.95;15.56;15.55;15.51;15.33;13.11;0.62
72443;SPS30;60449;52.016;5.414;2023-09-19T00:09:32;2.50;2.44;2.30;2.03;16.19;16.18;16.14;15.93;13.61;0.63
72443;SPS30;60449;52.016;5.414;2023-09-19T00:10:27;2.19;2.12;1.99;1.73;13.80;13.80;13.76;13.55;11.54;0.63
72443;SPS30;60449;52.016;5.414;2023-09-19T00:11:21;2.14;2.07;1.95;1.71;13.64;13.63;13.59;13.41;11.44;0.63
72443;SPS30;60449;52.016;5.414;2023-09-19T00:12:14;2.37;2.30;2.18;1.92;15.38;15.37;15.33;15.14;12.95;0.64
72443;SPS30;60449;52.016;5.414;2023-09-19T00:13:07;2.98;2.89;2.73;2.38;19.03;19.02;18.97;18.71;15.96;0.64
72443;SPS30;60449;52.016;5.414;2023-09-19T00:14:04;2.64;2.56;2.41;2.10;16.76;16.75;16.70;16.46;14.03;0.63
72443;SPS30;60449;52.016;5.414;2023-09-19T00:15:03;2.85;2.76;2.57;2.22;17.76;17.75;17.69;17.42;14.80;0.64
72443;SPS30;60449;52.016;5.414;2023-09-19T00:15:55;2.58;2.49;2.32;1.99;15.91;15.90;15.85;15.59;13.23;0.63
72443;SPS30;60449;52.016;5.414;2023-09-19T00:16:47;2.49;2.41;2.26;1.96;15.65;15.64;15.59;15.36;13.07;0.64
72443;SPS30;60449;52.016;5.414;2023-09-19T00:17:40;2.42;2.35;2.20;1.92;15.33;15.32;15.28;15.06;12.83;0.65
72443;SPS30;60449;52.016;5.414;2023-09-19T00:18:30;2.28;2.20;2.05;1.76;14.10;14.09;14.05;13.82;11.74;0.66
72443;SPS30;60449;52.016;5.414;2023-09-19T00:19:23;2.10;2.02;1.87;1.59;12.67;12.67;12.62;12.39;10.49;0.67
72443;SPS30;60449;52.016;5.414;2023-09-19T00:20:13;2.51;2.41;2.21;1.85;14.81;14.80;14.74;14.45;12.17;0.68
72443;SPS30;60449;52.016;5.414;2023-09-19T00:21:06;3.58;3.42;3.11;2.58;20.59;20.58;20.49;20.04;16.82;0.68
72443;SPS30;60449;52.016;5.414;2023-09-19T00:30:51;2.50;2.45;2.35;2.11;16.89;16.88;16.85;16.68;14.34;0.63
72443;SPS30;60449;52.016;5.414;2023-09-19T00:31:44;2.05;2.01;1.93;1.73;13.80;13.79;13.77;13.63;11.71;0.63
72443;SPS30;60449;52.016;5.414;2023-09-19T00:32:34;2.18;2.14;2.04;1.83;14.60;14.60;14.57;14.42;12.38;0.64
72443;SPS30;60449;52.016;5.414;2023-09-19T00:33:24;2.64;2.57;2.44;2.15;17.18;17.17;17.13;16.91;14.47;0.66
72443;SPS30;60449;52.016;5.414;2023-09-19T00:34:22;2.31;2.25;2.14;1.89;15.08;15.07;15.04;14.85;12.71;0.64
72443;SPS30;60449;52.016;5.414;2023-09-19T00:35:11;2.19;2.14;2.05;1.83;14.63;14.62;14.59;14.44;12.39;0.63
72443;SPS30;60449;52.016;5.414;2023-09-19T00:36:04;2.21;2.16;2.05;1.82;14.56;14.55;14.52;14.35;12.30;0.64
72443;SPS30;60449;52.016;5.414;2023-09-19T00:36:56;2.06;2.01;1.92;1.71;13.65;13.65;13.62;13.46;11.55;0.63
72443;SPS30;60449;52.016;5.414;2023-09-19T00:37:49;2.30;2.25;2.14;1.90;15.20;15.19;15.16;14.98;12.84;0.64
72443;SPS30;60449;52.016;5.414;2023-09-19T00:38:39;2.69;2.61;2.48;2.19;17.46;17.45;17.41;17.19;14.71;0.64
72443;SPS30;60449;52.016;5.414;2023-09-19T00:39:30;2.76;2.69;2.55;2.25;17.96;17.95;17.91;17.68;15.12;0.64
72443;SPS30;60449;52.016;5.414;2023-09-19T00:40:20;2.74;2.66;2.50;2.18;17.44;17.43;17.38;17.14;14.62;0.65
72443;SPS30;60449;52.016;5.414;2023-09-19T00:41:10;3.08;2.98;2.78;2.41;19.25;19.24;19.18;18.89;16.06;0.65
72443;SPS30;60449;52.016;5.414;2023-09-19T00:42:19;2.77;2.68;2.49;2.15;17.14;17.13;17.08;16.81;14.27;0.64
72443;SPS30;60449;52.016;5.414;2023-09-19T00:43:10;2.64;2.55;2.39;2.07;16.55;16.54;16.49;16.24;13.82;0.63
72443;SPS30;60449;52.016;5.414;2023-09-19T00:44:00;2.97;2.88;2.69;2.32;18.57;18.56;18.50;18.22;15.49;0.63
72443;SPS30;60449;52.016;5.414;2023-09-19T00:44:54;2.68;2.59;2.42;2.09;16.70;16.69;16.64;16.38;13.93;0.65
72443;SPS30;60449;52.016;5.414;2023-09-19T00:45:54;2.45;2.37;2.21;1.91;15.27;15.26;15.21;14.98;12.73;0.65
72443;SPS30;60449;52.016;5.414;2023-09-19T00:46:46;2.83;2.75;2.59;2.27;18.16;18.15;18.11;17.86;15.25;0.63
72443;SPS30;60449;52.016;5.414;2023-09-19T00:47:38;2.71;2.64;2.50;2.20;17.57;17.56;17.52;17.30;14.79;0.62
72443;SPS30;60449;52.016;5.414;2023-09-19T00:48:31;2.50;2.44;2.32;2.05;16.41;16.40;16.36;16.17;13.85;0.63
72443;SPS30;60449;52.016;5.414;2023-09-19T00:49:25;2.67;2.61;2.48;2.20;17.60;17.60;17.56;17.35;14.87;0.62
72443;SPS30;60449;52.016;5.414;2023-09-19T00:50:21;2.59;2.54;2.44;2.20;17.60;17.60;17.57;17.40;14.98;0.63
72443;SPS30;60449;52.016;5.414;2023-09-19T00:51:15;2.66;2.61;2.51;2.25;17.97;17.97;17.93;17.76;15.26;0.62
72443;SPS30;60449;52.016;5.414;2023-09-19T00:52:08;2.67;2.61;2.50;2.24;17.87;17.87;17.83;17.65;15.16;0.63
72443;SPS30;60449;52.016;5.414;2023-09-19T00:53:02;2.99;2.94;2.83;2.55;20.37;20.36;20.33;20.14;17.33;0.61
72443;SPS30;60449;52.016;5.414;2023-09-19T00:54:05;2.57;2.52;2.42;2.18;17.38;17.38;17.35;17.17;14.76;0.62
72443;SPS30;60449;52.016;5.414;2023-09-19T00:54:56;2.52;2.47;2.36;2.11;16.85;16.84;16.81;16.63;14.27;0.62
72443;SPS30;60449;52.016;5.414;2023-09-19T00:55:46;2.64;2.58;2.46;2.18;17.42;17.41;17.37;17.17;14.72;0.63
72443;SPS30;60449;52.016;5.414;2023-09-19T00:56:42;2.63;2.57;2.44;2.17;17.35;17.35;17.31;17.11;14.67;0.63
72443;SPS30;60449;52.016;5.414;2023-09-19T00:57:31;2.80;2.73;2.58;2.28;18.19;18.18;18.14;17.91;15.32;0.63
72443;SPS30;60449;52.016;5.414;2023-09-19T00:58:22;2.50;2.43;2.29;2.01;16.05;16.05;16.00;15.79;13.48;0.63
72443;SPS30;60449;52.016;5.414;2023-09-19T00:59:13;2.84;2.77;2.63;2.32;18.57;18.56;18.52;18.29;15.66;0.63
72443;SPS30;60449;52.016;5.414;2023-09-19T01:00:03;2.78;2.71;2.57;2.26;18.07;18.06;18.02;17.79;15.21;0.64
72443;SPS30;60449;52.016;5.414;2023-09-19T01:00:58;2.89;2.82;2.67;2.36;18.86;18.85;18.81;18.57;15.89;0.62
72443;SPS30;60449;52.016;5.414;2023-09-19T01:01:49;2.68;2.61;2.48;2.19;17.53;17.52;17.48;17.27;14.79;0.61
72443;SPS30;60449;52.016;5.414;2023-09-19T01:02:43;2.53;2.48;2.37;2.11;16.88;16.87;16.84;16.66;14.29;0.61
72443;SPS30;60449;52.016;5.414;2023-09-19T01:03:34;3.20;3.13;2.99;2.67;21.32;21.31;21.27;21.03;18.05;0.61
72443;SPS30;60449;52.016;5.414;2023-09-19T01:04:29;2.73;2.68;2.57;2.31;18.48;18.47;18.43;18.26;15.70;0.60
72443;SPS30;60449;52.016;5.414;2023-09-19T01:05:22;2.56;2.52;2.45;2.23;17.85;17.84;17.82;17.68;15.26;0.59
72443;SPS30;60449;52.016;5.414;2023-09-19T01:06:15;3.02;2.99;2.91;2.67;21.33;21.33;21.30;21.15;18.29;0.60
72443;SPS30;60449;52.016;5.414;2023-09-19T01:07:07;2.47;2.44;2.38;2.17;17.35;17.34;17.32;17.19;14.85;0.60
72443;SPS30;60449;52.016;5.414;2023-09-19T01:07:58;2.86;2.82;2.75;2.51;20.07;20.07;20.04;19.90;17.19;0.62
72443;SPS30;60449;52.016;5.414;2023-09-19T01:08:48;2.63;2.59;2.51;2.28;18.22;18.21;18.18;18.03;15.55;0.63
72443;SPS30;60449;52.016;5.414;2023-09-19T01:09:37;2.99;2.93;2.81;2.51;20.05;20.05;20.01;19.80;17.00;0.65
72443;SPS30;60449;52.016;5.414;2023-09-19T01:10:42;2.89;2.81;2.65;2.33;18.62;18.61;18.56;18.32;15.64;0.67
72443;SPS30;60449;52.016;5.414;2023-09-19T01:11:43;3.22;3.12;2.93;2.55;20.33;20.32;20.27;19.97;17.00;0.66
72443;SPS30;60449;52.016;5.414;2023-09-19T01:12:45;4.30;4.17;3.91;3.40;27.18;27.16;27.09;26.69;22.74;0.65
72443;SPS30;60449;52.016;5.414;2023-09-19T01:13:47;3.72;3.59;3.33;2.86;22.85;22.83;22.76;22.38;18.99;0.66
72443;SPS30;60449;52.016;5.414;2023-09-19T01:15:11;2.98;2.89;2.70;2.33;18.62;18.61;18.55;18.27;15.53;0.66
72443;SPS30;60449;52.016;5.414;2023-09-19T01:17:41;3.51;3.41;3.22;2.83;22.58;22.57;22.51;22.21;18.97;0.65
72443;SPS30;60449;52.016;5.414;2023-09-19T01:18:43;3.15;3.06;2.88;2.51;20.07;20.06;20.01;19.73;16.82;0.65
72443;SPS30;60449;52.016;5.414;2023-09-19T01:21:35;3.55;3.40;3.11;2.60;20.78;20.77;20.68;20.26;17.06;0.67
72443;SPS30;60449;52.016;5.414;2023-09-19T01:22:47;3.29;3.16;2.90;2.44;19.49;19.48;19.40;19.02;16.05;0.68
72443;SPS30;60449;52.016;5.414;2023-09-19T01:24:10;3.52;3.40;3.17;2.74;21.87;21.86;21.79;21.45;18.22;0.66
72443;SPS30;60449;52.016;5.414;2023-09-19T01:26:06;3.17;3.06;2.84;2.42;19.36;19.35;19.29;18.96;16.07;0.64
72443;SPS30;60449;52.016;5.414;2023-09-19T01:27:34;4.18;3.97;3.57;2.92;23.31;23.29;23.18;22.61;18.89;0.67
72443;SPS30;60449;52.016;5.414;2023-09-19T01:29:01;5.13;4.86;4.33;3.48;27.80;27.77;27.63;26.89;22.34;0.70
72443;SPS30;60449;52.016;5.414;2023-09-19T01:30:26;3.90;3.70;3.31;2.68;21.40;21.38;21.28;20.73;17.26;0.70
72443;SPS30;60449;52.016;5.414;2023-09-19T01:31:42;4.30;4.09;3.68;3.02;24.11;24.09;23.98;23.41;19.57;0.70
72443;SPS30;60449;52.016;5.414;2023-09-19T01:32:36;3.18;3.04;2.77;2.31;18.47;18.46;18.38;18.00;15.14;0.68
72443;SPS30;60449;52.016;5.414;2023-09-19T01:34:50;2.73;2.63;2.41;2.04;16.29;16.28;16.22;15.91;13.44;0.67
72443;SPS30;60449;52.016;5.414;2023-09-19T01:35:52;3.96;3.78;3.42;2.81;22.47;22.45;22.35;21.84;18.29;0.68
72443;SPS30;60449;52.016;5.414;2023-09-19T01:36:47;4.26;4.03;3.59;2.89;23.12;23.10;22.98;22.37;18.60;0.68
72443;SPS30;60449;52.016;5.414;2023-09-19T01:37:37;4.47;4.22;3.75;3.00;24.00;23.98;23.85;23.19;19.25;0.67
72443;SPS30;60449;52.016;5.414;2023-09-19T01:38:30;3.57;3.39;3.05;2.48;19.83;19.81;19.72;19.23;16.05;0.68
72443;SPS30;60449;52.016;5.414;2023-09-19T01:39:21;3.64;3.45;3.08;2.49;19.90;19.89;19.79;19.27;16.04;0.70
72443;SPS30;60449;52.016;5.414;2023-09-19T01:40:12;4.27;4.06;3.64;2.96;23.67;23.65;23.54;22.95;19.15;0.69
72443;SPS30;60449;52.016;5.414;2023-09-19T01:41:11;4.48;4.25;3.81;3.09;24.69;24.67;24.54;23.92;19.94;0.70
72443;SPS30;60449;52.016;5.414;2023-09-19T01:42:40;3.99;3.76;3.30;2.59;20.73;20.71;20.59;19.96;16.46;0.73
72443;SPS30;60449;52.016;5.414;2023-09-19T01:43:41;4.10;3.84;3.32;2.55;20.37;20.35;20.21;19.51;15.95;0.73
72443;SPS30;60449;52.016;5.414;2023-09-19T01:44:36;4.19;3.95;3.47;2.73;21.78;21.76;21.63;20.97;17.29;0.71
72443;SPS30;60449;52.016;5.414;2023-09-19T01:45:59;3.97;3.73;3.26;2.55;20.39;20.37;20.24;19.61;16.14;0.73
72443;SPS30;60449;52.016;5.414;2023-09-19T01:47:26;4.12;3.86;3.36;2.59;20.72;20.69;20.56;19.87;16.29;0.73
72443;SPS30;60449;52.016;5.414;2023-09-19T01:48:25;4.27;3.99;3.43;2.61;20.87;20.85;20.70;19.95;16.26;0.73
72443;SPS30;60449;52.016;5.414;2023-09-19T01:49:37;4.40;4.11;3.54;2.69;21.50;21.47;21.32;20.55;16.74;0.74
72443;SPS30;60449;52.016;5.414;2023-09-19T01:50:55;4.70;4.38;3.74;2.81;22.47;22.45;22.28;21.43;17.38;0.75
72443;SPS30;60449;52.016;5.414;2023-09-19T01:51:53;4.50;4.22;3.66;2.82;22.51;22.49;22.34;21.58;17.66;0.72
72443;SPS30;60449;52.016;5.414;2023-09-19T01:52:57;4.62;4.32;3.75;2.89;23.11;23.08;22.93;22.15;18.14;0.72
72443;SPS30;60449;52.016;5.414;2023-09-19T01:54:03;4.47;4.17;3.59;2.73;21.79;21.77;21.61;20.83;16.96;0.72
72443;SPS30;60449;52.016;5.414;2023-09-19T01:55:05;4.34;4.06;3.51;2.69;21.48;21.46;21.31;20.56;16.80;0.71
72443;SPS30;60449;52.016;5.414;2023-09-19T01:56:07;4.47;4.17;3.60;2.74;21.87;21.85;21.69;20.91;17.04;0.74
72443;SPS30;60449;52.016;5.414;2023-09-19T01:57:08;4.23;3.95;3.40;2.58;20.62;20.60;20.45;19.71;16.05;0.74
72443;SPS30;60449;52.016;5.414;2023-09-19T01:58:18;4.85;4.51;3.85;2.87;22.95;22.92;22.74;21.85;17.68;0.74
72443;SPS30;60449;52.016;5.414;2023-09-19T01:59:24;4.06;3.79;3.26;2.47;19.76;19.73;19.59;18.88;15.37;0.72
72443;SPS30;60449;52.016;5.414;2023-09-19T02:00:25;5.13;4.77;4.07;3.05;24.35;24.32;24.13;23.19;18.78;0.73
72443;SPS30;60449;52.016;5.414;2023-09-19T02:01:26;4.53;4.21;3.60;2.70;21.60;21.57;21.41;20.58;16.69;0.73
72443;SPS30;60449;52.016;5.414;2023-09-19T02:02:18;4.21;3.92;3.35;2.50;20.00;19.98;19.83;19.05;15.43;0.74
72443;SPS30;60449;52.016;5.414;2023-09-19T02:23:32;4.47;4.13;3.46;2.49;19.93;19.90;19.72;18.83;15.03;0.78
72443;SPS30;60449;52.016;5.414;2023-09-19T02:24:25;5.43;5.00;4.17;2.98;23.85;23.81;23.59;22.49;17.89;0.78
72443;SPS30;60449;52.016;5.414;2023-09-19T02:25:32;5.11;4.71;3.92;2.79;22.34;22.30;22.10;21.05;16.72;0.80
72443;SPS30;60449;52.016;5.414;2023-09-19T02:26:26;5.31;4.87;4.02;2.81;22.50;22.47;22.24;21.11;16.65;0.81
72443;SPS30;60449;52.016;5.414;2023-09-19T02:27:18;5.08;4.66;3.85;2.71;21.65;21.62;21.40;20.33;16.06;0.80
72443;SPS30;60449;52.016;5.414;2023-09-19T02:28:24;5.94;5.44;4.47;3.10;24.79;24.75;24.49;23.20;18.22;0.81
72443;SPS30;60449;52.016;5.414;2023-09-19T02:29:29;5.28;4.84;3.98;2.78;22.21;22.17;21.94;20.81;16.38;0.80
72443;SPS30;60449;52.016;5.414;2023-09-19T02:30:23;4.95;4.54;3.72;2.58;20.67;20.64;20.42;19.35;15.20;0.80
72443;SPS30;60449;52.016;5.414;2023-09-19T02:31:15;5.26;4.82;3.97;2.78;22.20;22.17;21.94;20.82;16.40;0.79
72443;SPS30;60449;52.016;5.414;2023-09-19T02:32:07;5.21;4.81;4.02;2.89;23.09;23.05;22.84;21.79;17.37;0.77
72443;SPS30;60449;52.016;5.414;2023-09-19T02:33:00;4.94;4.56;3.81;2.74;21.92;21.89;21.69;20.69;16.50;0.77
72443;SPS30;60449;52.016;5.414;2023-09-19T02:33:51;4.55;4.19;3.50;2.51;20.04;20.01;19.83;18.90;15.05;0.77
72443;SPS30;60449;52.016;5.414;2023-09-19T02:34:52;5.13;4.73;3.96;2.84;22.75;22.72;22.51;21.48;17.13;0.76
72443;SPS30;60449;52.016;5.414;2023-09-19T02:35:42;4.47;4.13;3.45;2.48;19.80;19.77;19.59;18.69;14.89;0.77
72443;SPS30;60449;52.016;5.414;2023-09-19T02:36:39;5.27;4.87;4.09;2.97;23.75;23.71;23.51;22.47;17.98;0.76
72443;SPS30;60449;52.016;5.414;2023-09-19T02:37:28;4.36;4.03;3.38;2.44;19.55;19.52;19.35;18.48;14.78;0.77
72443;SPS30;60449;52.016;5.414;2023-09-19T02:38:19;5.16;4.75;3.94;2.79;22.33;22.29;22.08;21.01;16.65;0.77
72443;SPS30;60449;52.016;5.414;2023-09-19T02:39:15;4.36;4.01;3.31;2.33;18.62;18.59;18.41;17.49;13.81;0.78
72443;SPS30;60449;52.016;5.414;2023-09-19T02:40:06;4.17;3.84;3.19;2.28;18.20;18.18;18.00;17.15;13.62;0.76
72443;SPS30;60449;52.016;5.414;2023-09-19T02:41:08;5.18;4.74;3.88;2.68;21.43;21.39;21.17;20.03;15.70;0.78
72443;SPS30;60449;52.016;5.414;2023-09-19T02:41:58;5.04;4.62;3.80;2.65;21.22;21.18;20.96;19.88;15.66;0.78
72443;SPS30;60449;52.016;5.414;2023-09-19T02:42:48;5.16;4.72;3.86;2.66;21.29;21.25;21.02;19.89;15.58;0.79
72443;SPS30;60449;52.016;5.414;2023-09-19T02:43:44;5.94;5.42;4.42;3.02;24.13;24.09;23.82;22.50;17.54;0.79
72443;SPS30;60449;52.016;5.414;2023-09-19T02:44:38;6.01;5.49;4.48;3.07;24.57;24.53;24.26;22.93;17.91;0.80
72443;SPS30;60449;52.016;5.414;2023-09-19T02:45:29;5.59;5.10;4.14;2.81;22.47;22.43;22.18;20.92;16.27;0.80
72443;SPS30;60449;52.016;5.414;2023-09-19T02:46:19;4.79;4.36;3.53;2.37;19.00;18.97;18.75;17.65;13.68;0.81
72443;SPS30;60449;52.016;5.414;2023-09-19T02:47:09;5.25;4.75;3.80;2.49;19.90;19.86;19.61;18.36;14.04;0.84
72443;SPS30;60449;52.016;5.414;2023-09-19T02:48:25;5.48;4.97;3.97;2.60;20.78;20.74;20.48;19.17;14.66;0.82
72443;SPS30;60449;52.016;5.414;2023-09-19T02:49:14;5.47;4.96;3.98;2.63;21.03;20.99;20.73;19.45;14.93;0.83
72443;SPS30;60449;52.016;5.414;2023-09-19T02:50:09;6.00;5.42;4.28;2.75;21.99;21.94;21.65;20.17;15.26;0.85
72443;SPS30;60449;52.016;5.414;2023-09-19T02:51:00;5.98;5.42;4.33;2.85;22.78;22.73;22.44;21.02;16.10;0.83
72443;SPS30;60449;52.016;5.414;2023-09-19T02:51:52;5.20;4.72;3.80;2.53;20.23;20.19;19.95;18.74;14.44;0.83
72443;SPS30;60449;52.016;5.414;2023-09-19T02:52:47;5.60;5.10;4.11;2.75;22.02;21.98;21.72;20.43;15.79;0.83
72443;SPS30;60449;52.016;5.414;2023-09-19T02:53:38;5.60;5.11;4.15;2.81;22.51;22.47;22.21;20.95;16.29;0.82
72443;SPS30;60449;52.016;5.414;2023-09-19T02:54:39;5.58;5.10;4.17;2.86;22.87;22.83;22.58;21.35;16.69;0.82
72443;SPS30;60449;52.016;5.414;2023-09-19T02:55:35;5.53;5.06;4.14;2.85;22.80;22.76;22.52;21.30;16.68;0.82
72443;SPS30;60449;52.016;5.414;2023-09-19T02:56:27;5.62;5.12;4.15;2.79;22.35;22.31;22.05;20.77;16.10;0.83
72443;SPS30;60449;52.016;5.414;2023-09-19T02:57:17;5.15;4.68;3.77;2.52;20.16;20.12;19.88;18.69;14.43;0.83
72443;SPS30;60449;52.016;5.414;2023-09-19T02:58:08;5.74;5.22;4.22;2.84;22.69;22.64;22.38;21.07;16.31;0.83
72443;SPS30;60449;52.016;5.414;2023-09-19T02:59:03;5.15;4.69;3.81;2.59;20.69;20.66;20.42;19.26;14.98;0.82
72443;SPS30;60449;52.016;5.414;2023-09-19T02:59:59;5.88;5.37;4.38;3.00;24.03;23.99;23.73;22.42;17.52;0.80
72443;SPS30;60449;52.016;5.414;2023-09-19T03:00:56;5.41;4.95;4.05;2.80;22.39;22.35;22.12;20.94;16.41;0.78
72443;SPS30;60449;52.016;5.414;2023-09-19T03:01:47;5.49;5.01;4.07;2.77;22.16;22.12;21.87;20.64;16.07;0.79
72443;SPS30;60449;52.016;5.414;2023-09-19T03:02:38;5.81;5.30;4.31;2.92;23.40;23.36;23.10;21.79;16.95;0.79
72443;SPS30;60449;52.016;5.414;2023-09-19T03:03:35;4.92;4.48;3.62;2.44;19.54;19.50;19.28;18.15;14.07;0.79
72443;SPS30;60449;52.016;5.414;2023-09-19T03:04:28;4.94;4.51;3.67;2.50;20.01;19.97;19.75;18.65;14.53;0.78
72443;SPS30;60449;52.016;5.414;2023-09-19T03:05:20;4.91;4.47;3.62;2.44;19.51;19.47;19.25;18.13;14.05;0.80
72443;SPS30;60449;52.016;5.414;2023-09-19T03:06:13;5.88;5.36;4.34;2.93;23.46;23.41;23.14;21.81;16.93;0.78
72443;SPS30;60449;52.016;5.414;2023-09-19T03:07:04;5.41;4.93;3.98;2.68;21.41;21.37;21.12;19.88;15.39;0.79
72443;SPS30;60449;52.016;5.414;2023-09-19T03:08:01;5.65;5.13;4.13;2.74;21.96;21.92;21.65;20.34;15.67;0.82
72443;SPS30;60449;52.016;5.414;2023-09-19T03:08:53;5.13;4.68;3.80;2.58;20.61;20.57;20.34;19.18;14.91;0.80
72443;SPS30;60449;52.016;5.414;2023-09-19T03:09:46;5.43;4.96;4.04;2.76;22.09;22.05;21.80;20.60;16.07;0.80
72443;SPS30;60449;52.016;5.414;2023-09-19T03:10:39;5.35;4.90;4.01;2.77;22.13;22.09;21.86;20.69;16.21;0.78
72443;SPS30;60449;52.016;5.414;2023-09-19T03:11:30;5.01;4.60;3.80;2.67;21.35;21.31;21.10;20.04;15.83;0.77
72443;SPS30;60449;52.016;5.414;2023-09-19T03:12:20;4.85;4.45;3.69;2.61;20.85;20.82;20.62;19.60;15.52;0.78
72443;SPS30;60449;52.016;5.414;2023-09-19T03:13:10;5.74;5.26;4.33;3.02;24.15;24.11;23.86;22.63;17.81;0.78
72443;SPS30;60449;52.016;5.414;2023-09-19T03:14:07;5.41;4.94;4.04;2.78;22.21;22.17;21.93;20.74;16.23;0.80
72443;SPS30;60449;52.016;5.414;2023-09-19T03:14:56;5.03;4.59;3.74;2.56;20.45;20.42;20.19;19.07;14.88;0.81
72443;SPS30;60449;52.016;5.414;2023-09-19T03:15:50;5.52;5.04;4.12;2.82;22.57;22.53;22.29;21.07;16.46;0.81
72443;SPS30;60449;52.016;5.414;2023-09-19T03:16:47;5.54;5.07;4.14;2.85;22.78;22.74;22.50;21.28;16.65;0.80
72443;SPS30;60449;52.016;5.414;2023-09-19T03:17:42;5.75;5.27;4.34;3.03;24.26;24.22;23.98;22.75;17.92;0.78
72443;SPS30;60449;52.016;5.414;2023-09-19T03:18:33;4.55;4.19;3.50;2.51;20.06;20.03;19.85;18.92;15.07;0.77
72443;SPS30;60449;52.016;5.414;2023-09-19T03:19:28;4.91;4.52;3.77;2.69;21.53;21.50;21.30;20.30;16.15;0.77
72443;SPS30;60449;52.016;5.414;2023-09-19T03:20:18;4.63;4.25;3.52;2.49;19.92;19.89;19.69;18.73;14.83;0.77
72443;SPS30;60449;52.016;5.414;2023-09-19T03:21:10;4.73;4.36;3.64;2.61;20.88;20.85;20.66;19.70;15.70;0.76
72443;SPS30;60449;52.016;5.414;2023-09-19T03:22:00;5.33;4.92;4.12;2.96;23.70;23.67;23.45;22.38;17.86;0.76
72443;SPS30;60449;52.016;5.414;2023-09-19T03:22:53;4.87;4.47;3.71;2.62;20.97;20.94;20.73;19.72;15.62;0.77
72443;SPS30;60449;52.016;5.414;2023-09-19T03:23:46;5.21;4.79;3.95;2.77;22.15;22.11;21.89;20.78;16.40;0.77
72443;SPS30;60449;52.016;5.414;2023-09-19T03:24:48;5.23;4.81;3.97;2.79;22.34;22.30;22.08;20.98;16.57;0.79
72443;SPS30;60449;52.016;5.414;2023-09-19T03:25:37;4.27;3.92;3.23;2.25;18.02;17.99;17.81;16.89;13.31;0.79
72443;SPS30;60449;52.016;5.414;2023-09-19T03:26:28;5.67;5.17;4.20;2.85;22.77;22.73;22.47;21.19;16.47;0.83
72443;SPS30;60449;52.016;5.414;2023-09-19T03:27:18;5.58;5.08;4.12;2.78;22.28;22.24;21.98;20.72;16.08;0.84
72443;SPS30;60449;52.016;5.414;2023-09-19T03:28:09;5.18;4.72;3.83;2.59;20.72;20.69;20.45;19.28;14.97;0.82
72443;SPS30;60449;52.016;5.414;2023-09-19T03:29:05;5.29;4.84;3.96;2.72;21.80;21.76;21.53;20.36;15.94;0.81
72443;SPS30;60449;52.016;5.414;2023-09-19T03:30:06;5.07;4.64;3.81;2.65;21.17;21.14;20.92;19.82;15.58;0.82
72443;SPS30;60449;52.016;5.414;2023-09-19T03:31:00;5.14;4.69;3.82;2.61;20.92;20.88;20.65;19.51;15.22;0.84
72443;SPS30;60449;52.016;5.414;2023-09-19T03:31:52;4.56;4.16;3.38;2.30;18.36;18.33;18.13;17.10;13.31;0.83
72443;SPS30;60449;52.016;5.414;2023-09-19T03:32:49;4.61;4.20;3.40;2.29;18.31;18.28;18.07;17.02;13.19;0.84
72443;SPS30;60449;52.016;5.414;2023-09-19T03:33:39;6.24;5.69;4.61;3.12;24.97;24.93;24.64;23.23;18.05;0.84
72443;SPS30;60449;52.016;5.414;2023-09-19T03:34:29;4.93;4.50;3.66;2.48;19.88;19.84;19.62;18.51;14.40;0.83
72443;SPS30;60449;52.016;5.414;2023-09-19T03:35:19;5.12;4.67;3.78;2.56;20.49;20.45;20.21;19.06;14.80;0.84
72443;SPS30;60449;52.016;5.414;2023-09-19T03:36:16;4.97;4.51;3.61;2.37;19.00;18.96;18.73;17.55;13.45;0.86
72443;SPS30;60449;52.016;5.414;2023-09-19T03:37:09;5.15;4.68;3.76;2.50;20.04;20.00;19.76;18.57;14.31;0.85
72443;SPS30;60449;52.016;5.414;2023-09-19T03:38:02;4.74;4.33;3.52;2.40;19.23;19.19;18.98;17.92;13.97;0.82
72443;SPS30;60449;52.016;5.414;2023-09-19T03:39:08;5.03;4.60;3.77;2.61;20.90;20.86;20.64;19.55;15.34;0.79
72443;SPS30;60449;52.016;5.414;2023-09-19T03:40:00;5.41;4.95;4.05;2.80;22.38;22.34;22.10;20.92;16.39;0.79
72443;SPS30;60449;52.016;5.414;2023-09-19T03:40:53;4.76;4.36;3.59;2.51;20.05;20.02;19.81;18.80;14.80;0.79
72443;SPS30;60449;52.016;5.414;2023-09-19T03:41:44;5.52;5.07;4.19;2.95;23.60;23.56;23.33;22.17;17.52;0.77
72443;SPS30;60449;52.016;5.414;2023-09-19T03:42:38;5.37;4.93;4.06;2.84;22.72;22.68;22.45;21.31;16.80;0.78
72443;SPS30;60449;52.016;5.414;2023-09-19T03:43:28;4.48;4.11;3.39;2.37;18.96;18.93;18.74;17.78;14.02;0.78
72443;SPS30;60449;52.016;5.414;2023-09-19T03:44:19;4.66;4.27;3.53;2.48;19.82;19.79;19.59;18.61;14.69;0.79
72443;SPS30;60449;52.016;5.414;2023-09-19T03:56:24;4.49;4.16;3.51;2.58;20.60;20.58;20.40;19.54;15.71;0.77
72443;SPS30;60449;52.016;5.414;2023-09-19T03:57:15;4.86;4.50;3.78;2.75;22.02;21.99;21.80;20.84;16.70;0.77
72443;SPS30;60449;52.016;5.414;2023-09-19T03:58:09;4.86;4.51;3.82;2.81;22.46;22.43;22.25;21.32;17.16;0.76
72443;SPS30;60449;52.016;5.414;2023-09-19T03:58:59;5.02;4.63;3.89;2.82;22.57;22.53;22.33;21.34;17.08;0.78
72443;SPS30;60449;52.016;5.414;2023-09-19T03:59:50;5.24;4.83;4.03;2.89;23.09;23.05;22.84;21.78;17.34;0.79
72443;SPS30;60449;52.016;5.414;2023-09-19T04:00:41;5.63;5.18;4.32;3.08;24.66;24.62;24.39;23.24;18.48;0.79
72443;SPS30;60449;52.016;5.414;2023-09-19T04:01:31;4.58;4.24;3.58;2.63;21.03;21.00;20.83;19.95;16.04;0.76
72443;SPS30;60449;52.016;5.414;2023-09-19T04:02:22;5.04;4.68;3.98;2.95;23.63;23.59;23.41;22.47;18.14;0.77
72443;SPS30;60449;52.016;5.414;2023-09-19T04:03:13;4.41;4.10;3.49;2.60;20.80;20.78;20.61;19.80;16.01;0.76
72443;SPS30;60449;52.016;5.414;2023-09-19T04:04:15;4.06;3.77;3.21;2.38;19.06;19.04;18.89;18.13;14.65;0.77
72443;SPS30;60449;52.016;5.414;2023-09-19T04:05:08;4.37;4.05;3.42;2.52;20.13;20.11;19.94;19.11;15.37;0.77
72443;SPS30;60449;52.016;5.414;2023-09-19T04:05:58;4.58;4.25;3.63;2.71;21.64;21.62;21.45;20.61;16.68;0.75
72443;SPS30;60449;52.016;5.414;2023-09-19T04:07:08;4.39;4.09;3.52;2.68;21.41;21.38;21.23;20.46;16.66;0.75
72443;SPS30;60449;52.016;5.414;2023-09-19T04:07:57;4.77;4.45;3.82;2.88;23.02;22.99;22.82;21.97;17.85;0.77
72443;SPS30;60449;52.016;5.414;2023-09-19T04:09:08;4.92;4.56;3.88;2.88;23.03;23.00;22.82;21.90;17.68;0.78
72443;SPS30;60449;52.016;5.414;2023-09-19T04:10:11;5.06;4.71;4.01;2.99;23.89;23.86;23.67;22.73;18.39;0.77
72443;SPS30;60449;52.016;5.414;2023-09-19T04:11:02;4.15;3.84;3.25;2.40;19.17;19.14;18.98;18.19;14.65;0.78
72443;SPS30;60449;52.016;5.414;2023-09-19T04:11:56;4.26;3.95;3.34;2.45;19.59;19.56;19.40;18.58;14.94;0.78
72443;SPS30;60449;52.016;5.414;2023-09-19T04:13:07;4.71;4.37;3.69;2.72;21.75;21.72;21.54;20.64;16.61;0.77
72443;SPS30;60449;52.016;5.414;2023-09-19T04:14:03;4.76;4.41;3.71;2.71;21.70;21.67;21.49;20.56;16.51;0.78
72443;SPS30;60449;52.016;5.414;2023-09-19T04:14:56;6.23;5.77;4.86;3.55;28.40;28.36;28.12;26.91;21.59;0.76
72443;SPS30;60449;52.016;5.414;2023-09-19T04:15:52;4.61;4.29;3.66;2.73;21.87;21.84;21.67;20.82;16.86;0.74